Aérodrome :
LOGIN :

S'inscrire | Disclaimer

   EN    FR    IT 

 










Légende :    VFR   VFR Marginal   IFR   IFR Intensif   IFR Très Intensif
Visi : 
Plafond : 
>= 8 km
>= 3000ft
5 à 8 km
1000 à 3000 ft
1500m à 5 km
500 à 1000 ft
800 à 1500m
200 à 500 ft
< 800m
< 200 ft
Symboles :   Orages  Brouillard  Fortes neiges  Fortes précipitations  Vent > 20 kt
SIGMETs :   Divers  Orages  Givrage  Turbulence  Onde Orograph.  Cendres Volcan.






- Altitude de l'aérodrome : 102 ft
- Code IATA : EXT


EGTE - Exeter

DERNIER METAR :
  • 121350Z 28011G26KT 9999 6000N BKN013 11/10 Q0982

METARs EXPIRÉS :
  • 121320Z 26015G25KT 230V290 9999 6000N -RADZ BKN012 10/08 Q0982
  • 121250Z 22011KT 7000 -RADZ BKN012 10/10 Q0982
  • 121220Z 18013KT 6000 -RA BKN012 10/10 Q0982
  • 121150Z 18014KT 9999 5000SW -RA SCT012 BKN016 10/10 Q0983
  • 121120Z 18014KT 4000 -RADZ BR BKN014 10/09 Q0984

TAF AMD TAF EGTE
Valide du 12 à 13h jusqu'au 12 à 21h UTC


121335Z 1213/1221 25010KT 9999 SCT012
TEMPO 1213/1221 27015G25KT
TEMPO 1213/1221 7000 SHRA BKN012
PROB30
TEMPO 1213/1221 4000 +SHRA SHGS BKN009



MET'MAP, la Météo Aéronautique d'un coup d'oeil ! - Copyright ORBIFLY Décembre 2007 - Disclaimer

ORBIFLY MET'MAP TEAM :

Programmation & Développement : Alexandra Zaïnal
Sur une idée originale de : Baudouin d'Aumeries
Assistance à la programmation : Marc-Olivier Méhu
Soutien technique & logistique : Manuel Goepfert

Contact : metmap@orbifly.com




SOURCES & CREDITS :

   NOAA